createdAt,value
2018-08-12T00:00:26.534Z,99.90
2018-08-12T00:02:59.935Z,99.90
2018-08-12T00:05:32.787Z,99.90
2018-08-12T00:08:01.825Z,99.90
2018-08-12T00:10:30.951Z,99.90
2018-08-12T00:12:59.800Z,99.90
2018-08-12T00:15:28.672Z,99.90
2018-08-12T00:17:58.476Z,99.90
2018-08-12T00:20:34.460Z,99.90
2018-08-12T00:23:04.268Z,99.90
2018-08-12T00:25:34.132Z,99.90
2018-08-12T00:28:05.165Z,99.90
2018-08-12T00:30:33.997Z,99.90
2018-08-12T00:33:07.044Z,99.90
2018-08-12T00:35:41.991Z,99.90
2018-08-12T00:38:11.174Z,99.90
2018-08-12T00:40:40.066Z,99.90
2018-08-12T00:43:08.966Z,99.90
2018-08-12T00:45:39.791Z,99.90
2018-08-12T00:48:09.755Z,99.90
2018-08-12T00:50:39.623Z,99.90
2018-08-12T00:53:10.144Z,99.90
2018-08-12T00:55:41.089Z,99.90
2018-08-12T00:58:11.080Z,99.90
2018-08-12T01:00:40.296Z,99.90
2018-08-12T01:03:10.698Z,99.90
2018-08-12T01:05:40.090Z,99.90
2018-08-12T01:08:12.008Z,99.90
2018-08-12T01:10:41.039Z,99.90
2018-08-12T01:13:09.833Z,99.90
2018-08-12T01:15:42.433Z,99.90
2018-08-12T01:18:11.655Z,99.90
2018-08-12T01:20:40.402Z,99.90
2018-08-12T01:23:15.258Z,99.90
2018-08-12T01:25:44.117Z,99.90
2018-08-12T01:28:13.961Z,99.90
2018-08-12T01:30:46.707Z,99.90
2018-08-12T01:33:16.909Z,99.90
2018-08-12T01:35:50.155Z,99.90
2018-08-12T01:38:26.518Z,99.90
2018-08-12T01:40:55.354Z,99.90
2018-08-12T01:43:24.184Z,99.90
2018-08-12T01:45:55.155Z,99.90
2018-08-12T01:48:25.109Z,99.90
2018-08-12T01:50:53.903Z,99.90
2018-08-12T01:53:24.712Z,99.90
2018-08-12T01:55:54.869Z,99.90
2018-08-12T01:58:23.817Z,99.90
2018-08-12T02:00:53.069Z,99.90
2018-08-12T02:03:23.000Z,99.90
2018-08-12T02:05:51.781Z,99.90
2018-08-12T02:08:22.337Z,99.90
2018-08-12T02:10:52.297Z,99.90
2018-08-12T02:13:22.123Z,99.90
2018-08-12T02:15:50.989Z,99.90
2018-08-12T02:18:20.052Z,99.90
2018-08-12T02:20:50.025Z,99.90
2018-08-12T02:23:19.810Z,99.90
2018-08-12T02:25:52.664Z,99.90
2018-08-12T02:28:22.264Z,99.90
2018-08-12T02:30:53.033Z,99.90
2018-08-12T02:33:23.294Z,99.90
2018-08-12T02:35:53.410Z,99.90
2018-08-12T02:38:23.905Z,99.90
2018-08-12T02:40:52.782Z,99.90
2018-08-12T02:43:23.775Z,99.90
2018-08-12T02:45:52.635Z,99.90
2018-08-12T02:48:22.554Z,99.90
2018-08-12T02:50:51.421Z,99.90
2018-08-12T02:53:21.252Z,99.90
2018-08-12T02:55:50.228Z,99.90
2018-08-12T02:58:19.520Z,99.90
2018-08-12T03:00:49.822Z,99.90
2018-08-12T03:03:19.691Z,99.90
2018-08-12T03:05:58.265Z,99.90
2018-08-12T03:08:28.017Z,99.90
2018-08-12T03:10:59.281Z,99.90
2018-08-12T03:13:28.091Z,99.90
2018-08-12T03:15:59.001Z,99.90
2018-08-12T03:18:32.879Z,99.90
2018-08-12T03:21:02.334Z,99.90
2018-08-12T03:23:34.498Z,99.90
2018-08-12T03:26:04.270Z,99.90
2018-08-12T03:28:34.244Z,99.90
2018-08-12T03:31:04.061Z,99.90
2018-08-12T03:33:33.233Z,99.90
2018-08-12T03:36:02.325Z,99.90
2018-08-12T03:38:32.396Z,99.90
2018-08-12T03:41:01.152Z,99.90
2018-08-12T03:43:30.282Z,99.90
2018-08-12T03:46:00.240Z,99.90
2018-08-12T03:48:30.353Z,99.90
2018-08-12T03:51:00.277Z,99.90
2018-08-12T03:53:31.116Z,99.90
2018-08-12T03:56:00.854Z,99.90
2018-08-12T03:58:31.833Z,99.90
2018-08-12T04:01:03.774Z,99.90
2018-08-12T04:03:38.741Z,99.90
2018-08-12T04:06:08.052Z,99.90
2018-08-12T04:08:38.035Z,99.90
2018-08-12T04:11:07.019Z,99.90
2018-08-12T04:13:35.756Z,99.90
2018-08-12T04:16:08.225Z,99.90
2018-08-12T04:18:37.084Z,99.90
2018-08-12T04:21:07.065Z,99.90
2018-08-12T04:23:36.060Z,99.90
2018-08-12T04:26:08.256Z,99.90
2018-08-12T04:28:39.013Z,99.90
2018-08-12T04:31:07.769Z,99.90
2018-08-12T04:33:38.683Z,99.90
2018-08-12T04:36:09.615Z,99.90
2018-08-12T04:38:38.617Z,99.90
2018-08-12T04:41:09.836Z,99.90
2018-08-12T04:43:47.794Z,99.90
2018-08-12T04:46:21.347Z,99.90
2018-08-12T04:48:50.199Z,99.90
2018-08-12T04:51:22.432Z,99.90
2018-08-12T04:53:51.247Z,99.90
2018-08-12T04:56:21.017Z,99.90
2018-08-12T04:58:53.662Z,99.90
2018-08-12T05:01:27.935Z,99.90
2018-08-12T05:04:00.653Z,99.90
2018-08-12T05:06:29.390Z,99.90
2018-08-12T05:08:58.068Z,99.90
2018-08-12T05:11:27.104Z,99.90
2018-08-12T05:13:57.064Z,99.90
2018-08-12T05:16:26.293Z,99.90
2018-08-12T05:18:57.371Z,99.90
2018-08-12T05:21:26.640Z,99.90
2018-08-12T05:23:55.555Z,99.90
2018-08-12T05:26:24.704Z,99.90
2018-08-12T05:28:53.730Z,99.90
2018-08-12T05:31:22.966Z,99.90
2018-08-12T05:33:52.159Z,99.90
2018-08-12T05:36:22.004Z,99.90
2018-08-12T05:38:51.959Z,99.90
2018-08-12T05:41:21.957Z,99.90
2018-08-12T05:44:01.707Z,99.90
2018-08-12T05:46:30.673Z,99.90
2018-08-12T05:48:59.744Z,99.90
2018-08-12T05:51:28.757Z,99.90
2018-08-12T05:53:57.677Z,99.90
2018-08-12T05:56:26.657Z,99.90
2018-08-12T05:58:55.625Z,99.90
2018-08-12T06:01:24.635Z,99.90
2018-08-12T06:03:54.596Z,99.90
2018-08-12T06:06:23.470Z,99.90
2018-08-12T06:08:54.853Z,99.90
2018-08-12T06:11:30.015Z,99.90
2018-08-12T06:13:59.281Z,99.90
2018-08-12T06:16:30.176Z,99.90
2018-08-12T06:19:00.943Z,99.90
2018-08-12T06:21:31.145Z,99.90
2018-08-12T06:24:02.183Z,99.90
2018-08-12T06:26:31.927Z,99.90
2018-08-12T06:29:01.368Z,99.90
2018-08-12T06:31:30.366Z,99.90
2018-08-12T06:34:01.180Z,99.90
2018-08-12T06:36:30.922Z,99.90
2018-08-12T06:38:59.919Z,99.90
2018-08-12T06:41:28.835Z,99.90
2018-08-12T06:43:57.758Z,99.90
2018-08-12T06:46:26.772Z,99.90
2018-08-12T06:48:55.529Z,99.90
2018-08-12T06:51:26.351Z,99.90
2018-08-12T06:53:55.227Z,99.90
2018-08-12T06:56:25.439Z,99.90
2018-08-12T06:58:55.340Z,99.90
2018-08-12T07:01:24.342Z,99.90
2018-08-12T07:03:54.178Z,99.90
2018-08-12T07:06:26.922Z,99.90
2018-08-12T07:08:55.691Z,99.90
2018-08-12T07:11:26.424Z,99.90
2018-08-12T07:13:55.261Z,99.90
2018-08-12T07:16:24.064Z,99.90
2018-08-12T07:18:52.787Z,99.90
2018-08-12T07:21:21.670Z,99.90
2018-08-12T07:23:52.376Z,99.90
2018-08-12T07:26:22.168Z,99.90
2018-08-12T07:28:51.673Z,99.90
2018-08-12T07:31:20.444Z,99.90
2018-08-12T07:33:51.319Z,99.90
2018-08-12T07:36:20.127Z,99.90
2018-08-12T07:38:49.160Z,99.90
2018-08-12T07:41:19.178Z,99.90
2018-08-12T07:43:48.556Z,99.90
2018-08-12T07:46:17.362Z,99.90
2018-08-12T07:48:46.841Z,99.90
2018-08-12T07:51:15.585Z,99.90
2018-08-12T07:53:44.309Z,99.90
2018-08-12T07:56:14.062Z,99.90
2018-08-12T07:58:42.917Z,99.90
2018-08-12T08:01:11.789Z,99.90
2018-08-12T08:03:42.190Z,99.90
2018-08-12T08:06:11.007Z,99.90
2018-08-12T08:08:39.717Z,99.90
2018-08-12T08:11:08.474Z,99.90
2018-08-12T08:13:37.286Z,99.90
2018-08-12T08:16:06.047Z,99.90
2018-08-12T08:18:34.719Z,99.90
2018-08-12T08:21:03.544Z,99.90
2018-08-12T08:23:33.345Z,99.90
2018-08-12T08:26:02.204Z,99.90
2018-08-12T08:28:30.982Z,99.90
2018-08-12T08:30:59.768Z,99.90
2018-08-12T08:33:28.511Z,99.90
2018-08-12T08:35:57.165Z,99.90
2018-08-12T08:38:26.852Z,99.90
2018-08-12T08:40:55.700Z,99.90
2018-08-12T08:43:24.543Z,99.90
2018-08-12T08:45:53.160Z,99.90
2018-08-12T08:48:24.006Z,99.90
2018-08-12T08:50:52.792Z,99.90
2018-08-12T08:53:22.528Z,99.90
2018-08-12T08:55:51.445Z,99.90
2018-08-12T08:58:20.684Z,99.90
2018-08-12T09:00:49.403Z,99.90
2018-08-12T09:03:18.359Z,99.90
2018-08-12T09:05:47.102Z,99.90
2018-08-12T09:08:15.862Z,99.90
2018-08-12T09:10:44.688Z,99.90
2018-08-12T09:13:13.316Z,99.90
2018-08-12T09:15:42.054Z,99.90
2018-08-12T09:18:10.789Z,99.90
2018-08-12T09:20:43.274Z,99.90
2018-08-12T09:23:12.256Z,99.90
2018-08-12T09:25:40.961Z,99.90
2018-08-12T09:28:09.642Z,99.90
2018-08-12T09:30:38.500Z,99.90
2018-08-12T09:33:07.260Z,99.90
2018-08-12T09:35:36.017Z,99.90
2018-08-12T09:38:04.878Z,99.90
2018-08-12T09:40:33.588Z,99.90
2018-08-12T09:43:03.408Z,99.90
2018-08-12T09:45:33.100Z,99.90
2018-08-12T09:48:02.837Z,99.90
2018-08-12T09:50:31.777Z,99.90
2018-08-12T09:53:01.516Z,99.90
2018-08-12T09:55:30.262Z,99.90
2018-08-12T09:57:58.941Z,99.90
2018-08-12T10:00:32.878Z,99.90
2018-08-12T10:03:01.547Z,99.90
2018-08-12T10:05:30.601Z,99.90
2018-08-12T10:07:59.453Z,99.90
2018-08-12T10:10:28.263Z,99.90
2018-08-12T10:12:57.044Z,99.90
2018-08-12T10:15:25.812Z,99.90
2018-08-12T10:17:56.362Z,99.90
2018-08-12T10:20:25.155Z,99.90
2018-08-12T10:22:54.965Z,99.90
2018-08-12T10:25:23.706Z,99.90
2018-08-12T10:27:54.371Z,99.90
2018-08-12T10:30:23.100Z,99.90
2018-08-12T10:32:52.324Z,99.90
2018-08-12T10:35:20.992Z,99.90
2018-08-12T10:37:50.091Z,99.90
2018-08-12T10:40:19.853Z,99.90
2018-08-12T10:42:50.463Z,99.90
2018-08-12T10:45:20.306Z,99.90
2018-08-12T10:47:50.049Z,99.90
2018-08-12T10:50:20.233Z,99.90
2018-08-12T10:52:49.868Z,99.90
2018-08-12T10:55:20.590Z,99.90
2018-08-12T10:57:50.417Z,99.90
2018-08-12T11:00:26.672Z,99.90
2018-08-12T11:02:55.633Z,99.90
2018-08-12T11:05:25.230Z,99.90
2018-08-12T11:07:55.625Z,99.90
2018-08-12T11:10:28.228Z,99.90
2018-08-12T11:12:56.939Z,99.90
2018-08-12T11:15:26.666Z,99.90
2018-08-12T11:17:56.455Z,99.90
2018-08-12T11:20:25.260Z,99.90
2018-08-12T11:22:54.355Z,99.90
2018-08-12T11:25:23.256Z,99.90
2018-08-12T11:27:52.118Z,99.50
2018-08-12T11:30:20.873Z,99.90
2018-08-12T11:32:49.622Z,97.40
2018-08-12T11:35:18.474Z,98.50
2018-08-12T11:37:47.378Z,96.00
2018-08-12T11:40:17.162Z,98.30
2018-08-12T11:42:46.079Z,96.80
2018-08-12T11:45:17.281Z,97.20
2018-08-12T11:47:47.000Z,96.20
2018-08-12T11:50:16.862Z,97.70
2018-08-12T11:52:47.186Z,95.80
2018-08-12T11:55:17.746Z,97.30
2018-08-12T11:57:46.651Z,95.10
2018-08-12T12:00:21.788Z,96.00
2018-08-12T12:02:51.955Z,93.80
2018-08-12T12:05:20.820Z,96.70
2018-08-12T12:07:49.623Z,95.80
2018-08-12T12:10:20.264Z,96.60
2018-08-12T12:12:50.027Z,93.60
2018-08-12T12:15:19.062Z,92.30
2018-08-12T12:19:23.156Z,93.40
2018-08-12T12:21:53.484Z,91.60
2018-08-12T12:29:39.799Z,98.30
2018-08-12T12:32:09.084Z,99.90
2018-08-12T12:34:37.639Z,99.90
2018-08-12T12:37:06.308Z,99.90
2018-08-12T12:39:34.834Z,99.90
2018-08-12T12:42:03.394Z,99.90
2018-08-12T12:44:31.953Z,99.90
2018-08-12T12:47:00.571Z,99.90
2018-08-12T12:49:29.172Z,99.90
2018-08-12T12:51:57.700Z,99.90
2018-08-12T12:54:26.186Z,99.90
2018-08-12T12:56:54.743Z,99.90
2018-08-12T12:59:23.248Z,99.90
2018-08-12T13:01:51.759Z,99.90
2018-08-12T13:04:20.269Z,99.90
2018-08-12T13:06:48.902Z,99.90
2018-08-12T13:09:17.468Z,99.90
2018-08-12T13:11:46.026Z,99.90
2018-08-12T13:14:14.638Z,99.90
2018-08-12T13:16:43.188Z,99.90
2018-08-12T13:19:11.809Z,99.90
2018-08-12T13:21:40.359Z,99.90
2018-08-12T13:24:08.881Z,99.90
2018-08-12T13:26:37.446Z,99.90
2018-08-12T13:30:02.463Z,65.60
2018-08-12T13:32:31.058Z,55.10
2018-08-12T13:34:59.598Z,57.30
2018-08-12T13:37:28.267Z,58.40
2018-08-12T13:39:56.840Z,59.30
2018-08-12T13:42:25.433Z,59.20
2018-08-12T13:44:54.035Z,59.30
2018-08-12T13:47:22.680Z,58.60
2018-08-12T13:49:51.833Z,55.70
2018-08-12T13:52:20.364Z,56.20
2018-08-12T13:54:48.876Z,57.50
2018-08-12T13:57:17.389Z,58.50
2018-08-12T13:59:46.002Z,58.60
2018-08-12T14:02:14.555Z,58.50
2018-08-12T14:04:43.168Z,58.50
2018-08-12T14:07:11.992Z,58.50
2018-08-12T14:09:40.445Z,58.50
2018-08-12T14:12:08.995Z,57.70
2018-08-12T14:14:38.050Z,57.00
2018-08-12T14:17:06.656Z,58.10
2018-08-12T14:19:35.205Z,58.30
2018-08-12T14:22:04.551Z,57.80
2018-08-12T14:24:33.105Z,56.50
2018-08-12T14:27:02.056Z,57.10
2018-08-12T14:29:30.675Z,56.70
2018-08-12T14:31:59.417Z,55.90
2018-08-12T14:34:27.963Z,56.40
2018-08-12T14:36:56.575Z,56.00
2018-08-12T14:39:25.145Z,56.60
2018-08-12T14:41:54.007Z,56.10
2018-08-12T14:44:22.719Z,56.00
2018-08-12T14:46:52.779Z,56.30
2018-08-12T14:49:21.371Z,56.50
2018-08-12T14:51:50.307Z,55.70
2018-08-12T14:54:18.880Z,55.40
2018-08-12T14:56:47.780Z,55.80
2018-08-12T14:59:16.448Z,55.50
2018-08-12T15:01:45.356Z,55.50
2018-08-12T15:04:13.999Z,55.30
2018-08-12T15:06:42.587Z,55.00
2018-08-12T15:09:12.419Z,54.60
2018-08-12T15:11:42.299Z,55.00
2018-08-12T15:14:11.093Z,54.20
2018-08-12T15:16:39.922Z,54.20
2018-08-12T15:19:09.132Z,53.20
2018-08-12T15:21:38.626Z,52.80
2018-08-12T15:24:07.977Z,53.20
2018-08-12T15:26:38.336Z,54.20
2018-08-12T15:29:07.109Z,53.90
2018-08-12T15:31:34.763Z,53.90
2018-08-12T15:34:02.591Z,53.60
2018-08-12T15:36:30.360Z,53.70
2018-08-12T15:38:58.104Z,54.00
2018-08-12T15:41:25.793Z,54.50
2018-08-12T15:43:53.473Z,55.40
2018-08-12T15:46:21.127Z,55.30
2018-08-12T15:48:48.791Z,55.70
2018-08-12T15:51:16.517Z,56.00
2018-08-12T15:53:44.188Z,56.70
2018-08-12T15:56:12.005Z,56.70
2018-08-12T15:58:39.700Z,57.00
2018-08-12T16:01:07.467Z,57.40
2018-08-12T16:03:35.984Z,57.40
2018-08-12T16:06:03.946Z,57.90
2018-08-12T16:08:32.728Z,58.10
2018-08-12T16:11:00.468Z,58.50
2018-08-12T16:13:28.199Z,58.80
2018-08-12T16:15:55.950Z,58.70
2018-08-12T16:18:23.741Z,58.60
2018-08-12T16:20:52.441Z,58.60
2018-08-12T16:23:20.134Z,58.60
2018-08-12T16:25:48.978Z,58.90
2018-08-12T16:28:16.722Z,59.20
2018-08-12T16:30:44.422Z,59.30
2018-08-12T16:33:12.781Z,59.60
2018-08-12T16:35:41.622Z,59.50
2018-08-12T16:38:09.335Z,59.50
2018-08-12T16:40:37.097Z,59.70
2018-08-12T16:43:05.113Z,60.00
2018-08-12T16:45:33.840Z,60.10
2018-08-12T16:48:01.644Z,60.00
2018-08-12T16:50:29.360Z,60.30
2018-08-12T16:52:57.059Z,60.20
2018-08-12T16:55:25.836Z,60.20
2018-08-12T16:57:54.231Z,60.20
2018-08-12T17:00:23.771Z,60.40
2018-08-12T17:02:52.010Z,60.50
2018-08-12T17:05:21.104Z,60.50
2018-08-12T17:07:49.330Z,60.60
2018-08-12T17:10:18.913Z,60.70
2018-08-12T17:12:46.591Z,60.90
2018-08-12T17:15:17.584Z,60.90
2018-08-12T17:17:47.433Z,61.20
2018-08-12T17:20:16.410Z,61.20
2018-08-12T17:22:44.869Z,61.20
2018-08-12T17:25:12.643Z,61.30
2018-08-12T17:27:42.032Z,61.40
2018-08-12T17:30:12.480Z,61.50
2018-08-12T17:32:41.463Z,61.10
2018-08-12T17:35:09.747Z,61.70
2018-08-12T17:37:38.033Z,61.90
2018-08-12T17:40:08.976Z,62.00
2018-08-12T17:42:37.870Z,62.00
2018-08-12T17:45:06.535Z,62.20
2018-08-12T17:47:34.842Z,62.20
2018-08-12T17:50:02.643Z,62.00
2018-08-12T17:52:30.343Z,62.50
2018-08-12T17:54:58.121Z,62.70
2018-08-12T17:57:26.747Z,63.90
2018-08-12T17:59:56.002Z,63.00
2018-08-12T18:02:23.688Z,62.90
2018-08-12T18:04:53.361Z,63.00
2018-08-12T18:07:21.278Z,63.30
2018-08-12T18:09:49.674Z,63.00
2018-08-12T18:12:18.161Z,63.10
2018-08-12T18:14:47.025Z,63.20
2018-08-12T18:17:14.785Z,63.50
2018-08-12T18:19:42.461Z,64.00
2018-08-12T18:22:10.130Z,63.50
2018-08-12T18:24:38.511Z,63.50
2018-08-12T18:27:06.354Z,63.80
2018-08-12T18:29:34.296Z,64.10
2018-08-12T18:32:02.147Z,64.40
2018-08-12T18:34:29.878Z,64.30
2018-08-12T18:36:57.591Z,64.60
2018-08-12T18:39:25.303Z,64.30
2018-08-12T18:41:52.966Z,64.40
2018-08-12T18:44:20.712Z,64.50
2018-08-12T18:46:49.497Z,65.10
2018-08-12T18:49:17.262Z,65.30
2018-08-12T18:51:45.939Z,65.30
2018-08-12T18:54:14.448Z,64.60
2018-08-12T18:56:44.219Z,64.40
2018-08-12T18:59:12.009Z,64.80
2018-08-12T19:01:40.716Z,65.20
2018-08-12T19:04:08.584Z,64.50
2018-08-12T19:06:36.244Z,64.50
2018-08-12T19:09:07.119Z,64.30
2018-08-12T19:11:34.874Z,64.20
2018-08-12T19:14:02.547Z,64.60
2018-08-12T19:16:30.780Z,64.60
2018-08-12T19:18:58.623Z,65.40
2018-08-12T19:21:27.697Z,65.00
2018-08-12T19:23:55.383Z,65.30
2018-08-12T19:26:23.117Z,65.10
2018-08-12T19:28:50.803Z,65.10
2018-08-12T19:31:18.444Z,64.80
2018-08-12T19:33:46.287Z,65.00
2018-08-12T19:36:13.940Z,64.80
2018-08-12T19:38:41.653Z,64.40
2018-08-12T19:41:10.141Z,64.60
2018-08-12T19:43:37.792Z,64.60
2018-08-12T19:46:05.668Z,64.60
2018-08-12T19:48:33.368Z,64.30
2018-08-12T19:51:01.671Z,65.10
2018-08-12T19:53:29.366Z,64.00
2018-08-12T19:56:01.015Z,64.00
2018-08-12T19:58:28.687Z,63.90
2018-08-12T20:00:56.411Z,63.90
2018-08-12T20:03:24.167Z,64.10
2018-08-12T20:05:51.910Z,63.80
2018-08-12T20:08:20.506Z,63.90
2018-08-12T20:10:48.670Z,64.00
2018-08-12T20:13:16.380Z,64.00
2018-08-12T20:15:44.036Z,64.00
2018-08-12T20:18:11.732Z,64.00
2018-08-12T20:20:39.559Z,63.80
2018-08-12T20:23:07.251Z,63.70
2018-08-12T20:25:34.989Z,63.80
2018-08-12T20:28:03.299Z,63.40
2018-08-12T20:30:30.887Z,63.30
2018-08-12T20:32:58.548Z,63.20
2018-08-12T20:35:26.228Z,63.30
2018-08-12T20:37:54.742Z,63.40
2018-08-12T20:40:23.222Z,63.10
2018-08-12T20:42:50.916Z,63.30
2018-08-12T20:45:18.577Z,63.30
2018-08-12T20:47:46.315Z,63.30
2018-08-12T20:50:13.968Z,63.50
2018-08-12T20:52:43.307Z,63.40
2018-08-12T20:55:12.768Z,63.20
2018-08-12T20:57:41.201Z,63.40
2018-08-12T21:00:09.849Z,63.30
2018-08-12T21:02:37.791Z,63.40
2018-08-12T21:05:05.691Z,63.50
2018-08-12T21:07:33.411Z,63.50
2018-08-12T21:10:02.785Z,63.50
2018-08-12T21:12:30.686Z,63.60
2018-08-12T21:14:58.376Z,63.40
2018-08-12T21:17:26.155Z,63.30
2018-08-12T21:19:53.849Z,63.30
2018-08-12T21:22:21.533Z,63.40
2018-08-12T21:24:49.217Z,62.90
2018-08-12T21:27:16.910Z,63.10
2018-08-12T21:29:46.702Z,62.00
2018-08-12T21:32:14.623Z,63.00
2018-08-12T21:34:42.384Z,62.80
2018-08-12T21:37:10.156Z,62.60
2018-08-12T21:39:39.579Z,62.50
2018-08-12T21:42:07.251Z,62.50
2018-08-12T21:44:36.045Z,62.40
2018-08-12T21:47:05.167Z,62.30
2018-08-12T21:49:32.821Z,62.10
2018-08-12T21:52:00.519Z,62.50
2018-08-12T21:54:28.201Z,62.30
2018-08-12T21:56:55.864Z,62.30
2018-08-12T21:59:23.556Z,62.40
2018-08-12T22:01:51.625Z,62.30
2018-08-12T22:04:19.317Z,62.30
2018-08-12T22:06:46.968Z,62.30
2018-08-12T22:09:14.644Z,62.60
2018-08-12T22:11:42.357Z,63.40
2018-08-12T22:14:11.150Z,62.40
2018-08-12T22:16:38.781Z,62.60
2018-08-12T22:19:06.484Z,62.40
2018-08-12T22:21:34.153Z,62.50
2018-08-12T22:24:01.933Z,62.50
2018-08-12T22:26:30.609Z,62.60
2018-08-12T22:28:59.367Z,62.80
2018-08-12T22:31:28.182Z,62.90
2018-08-12T22:33:55.807Z,62.90
2018-08-12T22:36:23.511Z,62.90
2018-08-12T22:38:51.209Z,62.70
2018-08-12T22:41:18.888Z,62.60
2018-08-12T22:43:46.616Z,62.80
2018-08-12T22:46:14.317Z,62.90
2018-08-12T22:48:42.061Z,62.90
2018-08-12T22:51:09.757Z,63.10
2018-08-12T22:53:37.528Z,63.40
2018-08-12T22:56:05.313Z,63.20
2018-08-12T22:58:32.985Z,63.30
2018-08-12T23:01:03.071Z,63.20
2018-08-12T23:03:31.796Z,63.40
2018-08-12T23:05:59.673Z,63.50
2018-08-12T23:08:27.349Z,63.70
2018-08-12T23:10:55.000Z,63.50
2018-08-12T23:13:22.667Z,63.60
2018-08-12T23:16:13.148Z,63.70
2018-08-12T23:18:40.876Z,63.60
2018-08-12T23:21:10.636Z,63.60
2018-08-12T23:23:39.023Z,63.70
2018-08-12T23:26:08.300Z,63.60
2018-08-12T23:28:37.029Z,63.60
2018-08-12T23:31:04.887Z,63.50
2018-08-12T23:33:32.535Z,63.40
2018-08-12T23:36:01.238Z,63.50
2018-08-12T23:38:29.306Z,63.50
2018-08-12T23:40:56.982Z,63.60
2018-08-12T23:43:25.075Z,63.80
2018-08-12T23:45:52.767Z,63.60
2018-08-12T23:48:21.468Z,63.80
2018-08-12T23:50:49.151Z,63.70
2018-08-12T23:53:16.880Z,63.70
2018-08-12T23:55:44.592Z,63.70
2018-08-12T23:58:12.318Z,63.80
